Terminal Aerodrome Forecast
Issued by NWS Mt. Holly, NJ

Home | Current Version | Previous Version | Text Only | Print | Product List | Glossary On
Versions: 1 2 3 4 5 6 7 8 9 10 11 12 13 14 15 16 17 18
000
FTUS41 KPHI 261818 AAA
TAFTTN
TAF AMD
KTTN 261818Z 2618/2718 15003KT 1SM -RA BR BKN003 OVC008
      TEMPO 2619/2620 3SM -DZ BR FEW003 OVC008
     FM262000 20014G22KT 4SM BR BKN012 BKN025
     FM262300 23008KT P6SM -SHRA SCT015 BKN025
      TEMPO 2700/2702 33015KT 3SM SHRA OVC010
     FM270200 29008KT 4SM -SHRA BR OVC015
     FM270600 33010KT P6SM -SHRA BKN025 BKN040
     FM271400 34008KT P6SM BKN050 BKN100=

USA.gov is the U.S. government's official web portal to all federal, state and local government web resources and services.